sensor_id;sensor_type;location;lat;lon;timestamp;temperature;humidity
45237;DHT22;30973;51.442;3.580;2022-08-19T00:01:53;20.90;99.90
45237;DHT22;30973;51.442;3.580;2022-08-19T00:04:23;20.80;99.90
45237;DHT22;30973;51.442;3.580;2022-08-19T00:06:51;20.80;99.90
45237;DHT22;30973;51.442;3.580;2022-08-19T00:09:20;20.70;99.90
45237;DHT22;30973;51.442;3.580;2022-08-19T00:11:48;20.70;99.90
45237;DHT22;30973;51.442;3.580;2022-08-19T00:14:17;20.60;99.90
45237;DHT22;30973;51.442;3.580;2022-08-19T00:16:46;20.50;99.90
45237;DHT22;30973;51.442;3.580;2022-08-19T00:19:15;20.60;99.90
45237;DHT22;30973;51.442;3.580;2022-08-19T00:21:42;20.60;99.90
45237;DHT22;30973;51.442;3.580;2022-08-19T00:24:13;20.50;99.90
45237;DHT22;30973;51.442;3.580;2022-08-19T00:26:43;20.50;99.90
45237;DHT22;30973;51.442;3.580;2022-08-19T00:29:12;20.50;99.90
45237;DHT22;30973;51.442;3.580;2022-08-19T00:31:40;20.40;99.90
45237;DHT22;30973;51.442;3.580;2022-08-19T00:34:09;20.40;99.90
45237;DHT22;30973;51.442;3.580;2022-08-19T00:36:39;20.40;99.90
45237;DHT22;30973;51.442;3.580;2022-08-19T00:39:07;20.30;99.90
45237;DHT22;30973;51.442;3.580;2022-08-19T00:41:34;20.20;99.90
45237;DHT22;30973;51.442;3.580;2022-08-19T00:46:37;20.20;99.90
45237;DHT22;30973;51.442;3.580;2022-08-19T16:32:10;24.00;99.90
45237;DHT22;30973;51.442;3.580;2022-08-19T16:34:39;23.90;99.90
45237;DHT22;30973;51.442;3.580;2022-08-19T16:37:08;23.90;99.90
45237;DHT22;30973;51.442;3.580;2022-08-19T16:39:36;23.90;99.90
45237;DHT22;30973;51.442;3.580;2022-08-19T16:42:05;23.90;99.90
45237;DHT22;30973;51.442;3.580;2022-08-19T16:44:34;23.90;99.90
45237;DHT22;30973;51.442;3.580;2022-08-19T16:47:02;23.80;99.90
45237;DHT22;30973;51.442;3.580;2022-08-19T16:49:30;23.80;99.90
45237;DHT22;30973;51.442;3.580;2022-08-19T16:52:18;23.80;99.90
45237;DHT22;30973;51.442;3.580;2022-08-19T16:54:46;23.80;99.90
45237;DHT22;30973;51.442;3.580;2022-08-19T16:57:13;23.80;99.90
45237;DHT22;30973;51.442;3.580;2022-08-19T16:59:42;23.80;99.90
45237;DHT22;30973;51.442;3.580;2022-08-19T17:02:17;23.80;99.90
45237;DHT22;30973;51.442;3.580;2022-08-19T17:04:44;23.80;99.90
45237;DHT22;30973;51.442;3.580;2022-08-19T17:07:29;23.70;99.90
45237;DHT22;30973;51.442;3.580;2022-08-19T17:10:00;23.60;99.90
45237;DHT22;30973;51.442;3.580;2022-08-19T17:12:28;23.60;99.90
45237;DHT22;30973;51.442;3.580;2022-08-19T17:15:01;23.60;99.90
45237;DHT22;30973;51.442;3.580;2022-08-19T17:17:30;23.60;99.90
45237;DHT22;30973;51.442;3.580;2022-08-19T17:19:58;23.60;99.90
45237;DHT22;30973;51.442;3.580;2022-08-19T17:22:26;23.60;99.90
45237;DHT22;30973;51.442;3.580;2022-08-19T17:24:54;23.60;99.90
45237;DHT22;30973;51.442;3.580;2022-08-19T17:27:25;23.60;99.90
45237;DHT22;30973;51.442;3.580;2022-08-19T17:30:02;23.50;99.90
45237;DHT22;30973;51.442;3.580;2022-08-19T17:32:30;23.50;99.90
45237;DHT22;30973;51.442;3.580;2022-08-19T17:35:01;23.40;99.90
45237;DHT22;30973;51.442;3.580;2022-08-19T17:37:31;23.40;99.90
45237;DHT22;30973;51.442;3.580;2022-08-19T17:39:58;23.40;99.90
45237;DHT22;30973;51.442;3.580;2022-08-19T17:42:25;23.40;99.90
45237;DHT22;30973;51.442;3.580;2022-08-19T17:44:52;23.40;99.90
45237;DHT22;30973;51.442;3.580;2022-08-19T17:47:20;23.40;99.90
45237;DHT22;30973;51.442;3.580;2022-08-19T17:49:47;23.30;99.90
45237;DHT22;30973;51.442;3.580;2022-08-19T17:52:14;23.30;99.90
45237;DHT22;30973;51.442;3.580;2022-08-19T17:54:42;23.30;99.90
45237;DHT22;30973;51.442;3.580;2022-08-19T17:57:10;23.30;99.90
45237;DHT22;30973;51.442;3.580;2022-08-19T17:59:37;23.30;99.90
45237;DHT22;30973;51.442;3.580;2022-08-19T18:02:09;23.30;99.90
45237;DHT22;30973;51.442;3.580;2022-08-19T18:04:38;23.30;99.90
45237;DHT22;30973;51.442;3.580;2022-08-19T18:07:05;23.30;99.90
45237;DHT22;30973;51.442;3.580;2022-08-19T18:09:35;23.20;99.90
45237;DHT22;30973;51.442;3.580;2022-08-19T18:12:10;23.20;99.90
45237;DHT22;30973;51.442;3.580;2022-08-19T18:14:40;23.20;99.90
45237;DHT22;30973;51.442;3.580;2022-08-19T18:17:09;23.20;99.90
45237;DHT22;30973;51.442;3.580;2022-08-19T18:19:39;23.20;99.90
45237;DHT22;30973;51.442;3.580;2022-08-19T18:22:30;23.20;99.90
45237;DHT22;30973;51.442;3.580;2022-08-19T18:25:00;23.20;99.90
45237;DHT22;30973;51.442;3.580;2022-08-19T18:27:29;23.10;99.90
45237;DHT22;30973;51.442;3.580;2022-08-19T18:29:56;23.10;99.90
45237;DHT22;30973;51.442;3.580;2022-08-19T18:32:27;23.00;99.90
45237;DHT22;30973;51.442;3.580;2022-08-19T18:35:00;23.10;99.90
45237;DHT22;30973;51.442;3.580;2022-08-19T18:37:28;23.00;99.90
45237;DHT22;30973;51.442;3.580;2022-08-19T18:39:56;23.00;99.90
45237;DHT22;30973;51.442;3.580;2022-08-19T18:42:43;22.90;99.90
45237;DHT22;30973;51.442;3.580;2022-08-19T18:45:30;22.80;99.90
45237;DHT22;30973;51.442;3.580;2022-08-19T18:48:16;22.90;99.90
45237;DHT22;30973;51.442;3.580;2022-08-19T18:51:02;22.80;99.90
45237;DHT22;30973;51.442;3.580;2022-08-19T18:53:32;22.90;99.90
45237;DHT22;30973;51.442;3.580;2022-08-19T18:56:01;22.80;99.90
45237;DHT22;30973;51.442;3.580;2022-08-19T18:58:30;22.80;99.90
45237;DHT22;30973;51.442;3.580;2022-08-19T19:03:53;22.70;99.90
45237;DHT22;30973;51.442;3.580;2022-08-19T19:06:24;22.60;99.90
45237;DHT22;30973;51.442;3.580;2022-08-19T19:08:53;22.60;99.90
45237;DHT22;30973;51.442;3.580;2022-08-19T19:11:34;22.60;99.90
45237;DHT22;30973;51.442;3.580;2022-08-19T19:14:05;22.60;99.90
45237;DHT22;30973;51.442;3.580;2022-08-19T19:16:53;22.60;99.90
45237;DHT22;30973;51.442;3.580;2022-08-19T19:19:21;22.50;99.90
45237;DHT22;30973;51.442;3.580;2022-08-19T19:21:49;22.40;99.90
45237;DHT22;30973;51.442;3.580;2022-08-19T19:24:21;22.40;99.90
45237;DHT22;30973;51.442;3.580;2022-08-19T19:26:50;22.40;99.90
45237;DHT22;30973;51.442;3.580;2022-08-19T19:29:19;22.40;99.90
45237;DHT22;30973;51.442;3.580;2022-08-19T19:31:46;22.40;99.90
45237;DHT22;30973;51.442;3.580;2022-08-19T19:34:18;22.40;99.90
45237;DHT22;30973;51.442;3.580;2022-08-19T19:36:56;22.40;99.90
45237;DHT22;30973;51.442;3.580;2022-08-19T19:39:23;22.40;99.90
45237;DHT22;30973;51.442;3.580;2022-08-19T19:42:12;22.30;99.90
45237;DHT22;30973;51.442;3.580;2022-08-19T19:44:48;22.30;99.90
45237;DHT22;30973;51.442;3.580;2022-08-19T19:47:17;22.30;99.90
45237;DHT22;30973;51.442;3.580;2022-08-19T19:49:46;22.30;99.90
